createdAt,value
2017-05-18T04:44:17.739Z,85
2017-05-18T04:44:43.231Z,85
2017-05-18T04:45:08.718Z,85
2017-05-18T04:45:34.210Z,85
2017-05-18T04:45:59.716Z,85
2017-05-18T04:46:25.151Z,90
2017-05-18T04:46:50.650Z,90
2017-05-18T04:47:16.121Z,85
2017-05-18T04:47:41.528Z,85
2017-05-18T04:48:07.010Z,80
2017-05-18T04:48:32.518Z,80
2017-05-18T04:48:57.944Z,85
2017-05-18T04:49:23.419Z,85
2017-05-18T04:49:48.901Z,85
2017-05-18T04:50:14.385Z,85
2017-05-18T04:50:39.868Z,90
2017-05-18T04:51:05.324Z,90
2017-05-18T04:51:30.816Z,95
2017-05-18T04:51:56.286Z,100
2017-05-18T04:52:21.809Z,95
2017-05-18T04:52:47.298Z,100
2017-05-18T04:53:12.756Z,100
2017-05-18T04:53:38.216Z,100
2017-05-18T04:54:03.727Z,105
2017-05-18T04:54:29.203Z,110
2017-05-18T04:54:54.666Z,110
2017-05-18T04:55:20.137Z,115
2017-05-18T04:55:45.595Z,115
2017-05-18T04:56:11.065Z,115
2017-05-18T04:56:36.535Z,115
2017-05-18T04:57:01.989Z,115
2017-05-18T04:57:27.465Z,115
2017-05-18T04:57:52.953Z,120
2017-05-18T04:58:18.433Z,120
2017-05-18T04:58:43.909Z,120
2017-05-18T04:59:09.367Z,115
2017-05-18T04:59:34.860Z,120
2017-05-18T05:00:00.321Z,120
2017-05-18T05:00:25.800Z,120
2017-05-18T05:00:51.289Z,120
2017-05-18T05:01:16.794Z,120
2017-05-18T05:01:42.233Z,120
2017-05-18T05:02:07.718Z,125
2017-05-18T05:02:33.173Z,125
2017-05-18T05:02:58.645Z,125
2017-05-18T05:03:24.122Z,125
2017-05-18T05:03:49.646Z,120
2017-05-18T05:04:15.066Z,120
2017-05-18T05:04:40.532Z,125
2017-05-18T05:05:06.004Z,125
2017-05-18T05:05:31.483Z,125
2017-05-18T05:05:56.964Z,130
2017-05-18T05:06:22.453Z,130
2017-05-18T05:06:47.917Z,135
2017-05-18T05:07:13.395Z,135
2017-05-18T05:07:38.880Z,140
2017-05-18T05:08:04.363Z,135
2017-05-18T05:08:29.822Z,140
2017-05-18T05:08:55.292Z,140
2017-05-18T05:09:20.780Z,140
2017-05-18T05:09:46.323Z,145
2017-05-18T05:10:11.839Z,150
2017-05-18T05:10:37.296Z,145
2017-05-18T05:11:02.773Z,150
2017-05-18T05:11:28.247Z,150
2017-05-18T05:11:53.733Z,150
2017-05-18T05:12:19.220Z,155
2017-05-18T05:12:44.650Z,160
2017-05-18T05:13:10.127Z,165
2017-05-18T05:13:35.592Z,165
2017-05-18T05:14:01.067Z,165
2017-05-18T05:14:26.529Z,175
2017-05-18T05:14:52.015Z,175
2017-05-18T05:15:17.508Z,175
2017-05-18T05:15:42.973Z,175
2017-05-18T05:16:08.431Z,175
2017-05-18T05:16:33.902Z,175
2017-05-18T05:16:59.370Z,175
2017-05-18T05:17:24.832Z,175
2017-05-18T05:17:50.323Z,175
2017-05-18T05:18:15.796Z,175
2017-05-18T05:18:41.239Z,170
2017-05-18T05:19:06.710Z,170
2017-05-18T05:19:32.211Z,165
2017-05-18T05:19:57.670Z,155
2017-05-18T05:20:23.150Z,155
2017-05-18T05:20:48.637Z,145
2017-05-18T05:21:14.156Z,145
2017-05-18T05:21:39.681Z,145
2017-05-18T05:22:05.163Z,150
2017-05-18T05:22:30.603Z,145
2017-05-18T05:22:56.092Z,150
2017-05-18T05:23:21.558Z,150
2017-05-18T05:23:47.013Z,155
2017-05-18T05:24:12.495Z,155
2017-05-18T05:24:37.962Z,150
2017-05-18T05:25:03.436Z,145
2017-05-18T05:25:28.882Z,150
2017-05-18T05:25:54.357Z,140
2017-05-18T05:26:19.837Z,135
2017-05-18T05:26:45.272Z,130
2017-05-18T05:27:10.751Z,110
2017-05-18T05:27:36.220Z,125
2017-05-18T05:28:01.739Z,140
2017-05-18T05:28:27.210Z,140
2017-05-18T05:28:52.681Z,145
2017-05-18T05:29:18.164Z,150
2017-05-18T05:29:43.639Z,150
2017-05-18T05:30:09.107Z,145
2017-05-18T05:30:34.660Z,140
2017-05-18T05:31:00.150Z,135
2017-05-18T05:31:25.620Z,130
2017-05-18T05:31:51.070Z,130
2017-05-18T05:32:16.539Z,125
2017-05-18T05:32:42.011Z,125
2017-05-18T05:33:07.506Z,125
2017-05-18T05:33:32.968Z,125
2017-05-18T05:33:58.455Z,125
2017-05-18T05:34:23.911Z,120
2017-05-18T05:34:49.383Z,130
2017-05-18T05:35:14.858Z,135
2017-05-18T05:35:40.311Z,135
2017-05-18T05:36:05.852Z,130
2017-05-18T05:36:31.303Z,125
2017-05-18T05:36:56.765Z,125
2017-05-18T05:37:22.246Z,135
2017-05-18T05:37:47.715Z,140
2017-05-18T05:38:13.209Z,140
2017-05-18T05:38:38.672Z,140
2017-05-18T05:39:04.167Z,145
2017-05-18T05:39:29.656Z,145
2017-05-18T05:39:55.158Z,150
2017-05-18T05:40:20.572Z,155
2017-05-18T05:40:46.051Z,160
2017-05-18T05:41:11.539Z,155
2017-05-18T05:41:37.003Z,155
2017-05-18T05:42:02.505Z,150
2017-05-18T05:42:27.957Z,140
2017-05-18T05:42:53.430Z,140
2017-05-18T05:43:18.907Z,135
2017-05-18T05:43:44.428Z,135
2017-05-18T05:44:09.965Z,130
2017-05-18T05:44:35.441Z,120
2017-05-18T05:45:00.965Z,120
2017-05-18T05:45:26.406Z,125
2017-05-18T05:45:51.894Z,130
2017-05-18T05:46:17.387Z,130
2017-05-18T05:46:43.018Z,130
2017-05-18T05:47:08.653Z,135
2017-05-18T05:47:34.136Z,135
2017-05-18T05:47:59.633Z,130
2017-05-18T05:48:25.103Z,125
2017-05-18T05:48:50.592Z,120
2017-05-18T05:49:16.022Z,125
2017-05-18T05:49:41.596Z,130
2017-05-18T05:50:06.976Z,130
2017-05-18T05:50:32.528Z,120
2017-05-18T05:50:57.973Z,125
2017-05-18T05:51:23.450Z,130
2017-05-18T05:51:48.916Z,130
2017-05-18T05:52:14.398Z,130
2017-05-18T05:52:39.840Z,135
2017-05-18T05:53:05.349Z,130
2017-05-18T05:53:30.837Z,125
2017-05-18T05:53:56.332Z,115
2017-05-18T05:54:21.787Z,105
2017-05-18T05:54:47.258Z,110
2017-05-18T05:55:12.728Z,120
2017-05-18T05:55:38.182Z,150
2017-05-18T05:56:03.685Z,150
2017-05-18T05:56:29.188Z,150
2017-05-18T05:56:54.668Z,145
2017-05-18T05:57:20.113Z,140
2017-05-18T05:57:45.615Z,140
2017-05-18T05:58:11.079Z,130
2017-05-18T05:58:36.521Z,120
2017-05-18T05:59:02.007Z,120
2017-05-18T05:59:27.464Z,120
2017-05-18T05:59:52.926Z,130
2017-05-18T06:00:18.396Z,130
2017-05-18T06:00:43.848Z,130
2017-05-18T06:01:09.312Z,120
2017-05-18T06:01:34.753Z,125
2017-05-18T06:02:00.217Z,125
2017-05-18T06:02:25.687Z,125
2017-05-18T06:02:51.151Z,125
2017-05-18T06:03:16.610Z,120
2017-05-18T06:03:42.051Z,120
2017-05-18T06:04:07.551Z,125
2017-05-18T06:04:33.026Z,120
2017-05-18T06:04:58.483Z,125
2017-05-18T06:05:23.958Z,125
2017-05-18T06:05:49.451Z,130
2017-05-18T06:06:14.910Z,125
2017-05-18T06:06:40.384Z,125
2017-05-18T06:07:05.887Z,125
2017-05-18T06:07:31.445Z,130
2017-05-18T06:07:56.853Z,125
2017-05-18T06:08:22.303Z,130
2017-05-18T06:08:47.781Z,130
2017-05-18T06:09:13.233Z,130
2017-05-18T06:09:38.713Z,135
2017-05-18T06:10:04.184Z,145
2017-05-18T06:10:29.661Z,145
2017-05-18T06:10:55.143Z,140
2017-05-18T06:11:20.632Z,145
2017-05-18T06:11:46.113Z,150
2017-05-18T06:12:11.592Z,160
2017-05-18T06:12:37.102Z,165
2017-05-18T06:13:02.541Z,170
2017-05-18T06:13:28.032Z,185
2017-05-18T06:13:53.538Z,190
2017-05-18T06:14:18.973Z,195
2017-05-18T06:14:44.443Z,195
2017-05-18T06:15:09.926Z,200
2017-05-18T06:15:35.390Z,205
2017-05-18T06:16:00.848Z,215
2017-05-18T06:16:26.329Z,215
2017-05-18T06:16:51.816Z,220
2017-05-18T06:17:17.269Z,230
2017-05-18T06:17:42.747Z,245
2017-05-18T06:18:08.212Z,270
2017-05-18T06:18:33.694Z,275
2017-05-18T06:18:59.162Z,275
2017-05-18T06:19:24.628Z,275
2017-05-18T06:19:50.099Z,275
2017-05-18T06:20:15.560Z,275
2017-05-18T06:20:41.001Z,270
2017-05-18T06:21:06.482Z,250
2017-05-18T06:21:31.955Z,265
2017-05-18T06:21:57.451Z,270
2017-05-18T06:22:22.931Z,275
2017-05-18T06:22:48.400Z,260
2017-05-18T06:23:13.864Z,250
2017-05-18T06:23:39.339Z,245
2017-05-18T06:24:04.792Z,250
2017-05-18T06:24:30.251Z,250
2017-05-18T06:24:55.709Z,255
2017-05-18T06:25:21.202Z,280
2017-05-18T06:25:46.667Z,290
2017-05-18T06:26:12.145Z,300
2017-05-18T06:26:37.619Z,300
2017-05-18T06:27:03.083Z,290
2017-05-18T06:27:28.554Z,300
2017-05-18T06:27:54.004Z,295
2017-05-18T06:28:19.474Z,295
2017-05-18T06:28:44.956Z,300
2017-05-18T06:29:10.419Z,295
2017-05-18T06:29:35.889Z,260
2017-05-18T06:30:01.346Z,255
2017-05-18T06:30:26.833Z,245
2017-05-18T06:30:52.312Z,240
2017-05-18T06:31:17.811Z,235
2017-05-18T06:31:43.285Z,235
2017-05-18T06:32:08.774Z,245
2017-05-18T06:32:34.232Z,245
2017-05-18T06:32:59.724Z,235
2017-05-18T06:33:25.213Z,240
2017-05-18T06:33:50.709Z,255
2017-05-18T06:34:16.130Z,215
2017-05-18T06:34:41.609Z,210
2017-05-18T06:35:07.062Z,210
2017-05-18T06:35:32.550Z,210
2017-05-18T06:35:58.007Z,235
2017-05-18T06:36:23.476Z,220
2017-05-18T06:36:48.908Z,225
2017-05-18T06:37:14.400Z,200
2017-05-18T06:37:39.861Z,180
2017-05-18T06:38:05.338Z,165
2017-05-18T06:38:30.792Z,160
2017-05-18T06:38:56.242Z,155
2017-05-18T06:39:21.724Z,155
2017-05-18T06:39:47.191Z,155
2017-05-18T06:40:12.656Z,155
2017-05-18T06:40:38.134Z,160
2017-05-18T06:41:03.615Z,165
2017-05-18T06:41:29.085Z,165
2017-05-18T06:41:54.568Z,165
2017-05-18T06:42:20.021Z,165
2017-05-18T06:42:45.496Z,165
2017-05-18T06:43:10.981Z,160
2017-05-18T06:43:36.450Z,160
2017-05-18T06:44:01.914Z,165
2017-05-18T06:44:27.403Z,170
2017-05-18T06:44:52.871Z,180
2017-05-18T06:45:18.323Z,195
2017-05-18T06:45:43.803Z,205
2017-05-18T06:46:09.283Z,210
2017-05-18T06:46:34.757Z,210
2017-05-18T06:47:00.245Z,215
2017-05-18T06:47:25.718Z,220
2017-05-18T06:47:51.199Z,215
2017-05-18T06:48:16.651Z,215
2017-05-18T06:48:42.119Z,215
2017-05-18T06:49:07.597Z,215
2017-05-18T06:49:33.084Z,215
2017-05-18T06:49:58.545Z,215
2017-05-18T06:50:24.047Z,215
2017-05-18T06:50:49.544Z,215
2017-05-18T06:51:15.008Z,220
2017-05-18T06:51:40.484Z,225
2017-05-18T06:52:05.966Z,235
2017-05-18T06:52:31.412Z,240
2017-05-18T06:52:56.847Z,250
2017-05-18T06:53:22.330Z,260
2017-05-18T06:53:47.791Z,265
2017-05-18T06:54:13.278Z,265
2017-05-18T06:54:38.777Z,270
2017-05-18T06:55:04.260Z,270
2017-05-18T06:55:29.717Z,280
2017-05-18T06:55:55.183Z,270
2017-05-18T06:56:20.684Z,270
2017-05-18T06:56:46.159Z,250
2017-05-18T06:57:11.651Z,260
2017-05-18T06:57:37.124Z,260
2017-05-18T06:58:02.581Z,280
2017-05-18T06:58:28.064Z,255
2017-05-18T06:58:53.539Z,285
2017-05-18T06:59:19.021Z,285
2017-05-18T06:59:44.489Z,290
2017-05-18T07:00:09.979Z,285
2017-05-18T07:00:35.457Z,280
2017-05-18T07:01:00.943Z,275
2017-05-18T07:01:26.413Z,275
2017-05-18T07:01:51.877Z,275
2017-05-18T07:02:17.371Z,270
2017-05-18T07:02:42.857Z,275
2017-05-18T07:03:08.325Z,285
2017-05-18T07:03:33.797Z,270
2017-05-18T07:03:59.269Z,265
2017-05-18T07:04:24.742Z,240
2017-05-18T07:04:50.220Z,250
2017-05-18T07:05:15.699Z,240
2017-05-18T07:05:41.199Z,240
2017-05-18T07:06:06.677Z,245
2017-05-18T07:06:32.108Z,250
2017-05-18T07:06:57.563Z,245
2017-05-18T07:07:23.038Z,235
2017-05-18T07:07:48.496Z,225
2017-05-18T07:08:13.982Z,230
2017-05-18T07:08:39.463Z,240
2017-05-18T07:09:04.961Z,255
2017-05-18T07:09:30.418Z,255
2017-05-18T07:09:55.903Z,255
2017-05-18T07:10:21.361Z,250
2017-05-18T07:10:46.837Z,235
2017-05-18T07:11:12.314Z,225
2017-05-18T07:11:37.777Z,215
2017-05-18T07:12:03.247Z,210
2017-05-18T07:12:28.730Z,205
2017-05-18T07:12:54.222Z,205
2017-05-18T07:13:19.694Z,195
2017-05-18T07:13:45.147Z,190
2017-05-18T07:14:10.616Z,180
2017-05-18T07:14:36.095Z,175
2017-05-18T07:15:01.568Z,175
2017-05-18T07:15:27.038Z,175
2017-05-18T07:15:52.512Z,185
2017-05-18T07:16:17.982Z,195
2017-05-18T07:16:43.443Z,205
2017-05-18T07:17:08.922Z,215
2017-05-18T07:17:34.416Z,215
2017-05-18T07:17:59.886Z,215
2017-05-18T07:18:25.366Z,210
2017-05-18T07:18:50.924Z,195
2017-05-18T07:19:16.305Z,195
2017-05-18T07:19:41.783Z,190
2017-05-18T07:20:07.250Z,185
2017-05-18T07:20:32.728Z,180
2017-05-18T07:20:58.192Z,185
2017-05-18T07:21:23.652Z,180
2017-05-18T07:21:49.133Z,185
2017-05-18T07:22:14.598Z,180
2017-05-18T07:22:40.088Z,180
2017-05-18T07:23:05.610Z,180
2017-05-18T07:23:31.058Z,175
2017-05-18T07:23:56.520Z,175
2017-05-18T07:24:22.010Z,170
2017-05-18T07:24:47.482Z,165
2017-05-18T07:25:12.956Z,160
2017-05-18T07:25:38.427Z,150
2017-05-18T07:26:03.911Z,145
2017-05-18T07:26:29.413Z,145
2017-05-18T07:26:54.852Z,140
2017-05-18T07:27:20.338Z,130
2017-05-18T07:27:45.816Z,130
2017-05-18T07:28:11.286Z,125
2017-05-18T07:28:36.779Z,125
2017-05-18T07:29:02.268Z,125
2017-05-18T07:29:27.721Z,125
2017-05-18T07:29:53.200Z,120
2017-05-18T07:30:18.689Z,110
2017-05-18T07:30:44.165Z,100
2017-05-18T07:31:09.632Z,90
2017-05-18T07:31:35.114Z,85
2017-05-18T07:32:00.569Z,80
2017-05-18T07:32:26.060Z,80
2017-05-18T07:32:51.539Z,90
2017-05-18T07:33:17.002Z,100
2017-05-18T07:33:42.494Z,105
2017-05-18T07:34:07.949Z,110
2017-05-18T07:34:33.428Z,115
2017-05-18T07:34:58.932Z,110
2017-05-18T07:35:24.401Z,105
2017-05-18T07:35:49.888Z,100
2017-05-18T07:36:15.364Z,95
2017-05-18T07:36:40.838Z,85
2017-05-18T07:37:06.316Z,80
2017-05-18T07:37:31.819Z,75
2017-05-18T07:37:57.316Z,75
2017-05-18T07:38:22.783Z,75
2017-05-18T07:38:48.254Z,75
2017-05-18T07:39:13.721Z,70
2017-05-18T07:39:39.210Z,70
2017-05-18T07:40:04.699Z,70
2017-05-18T07:40:30.197Z,70
2017-05-18T07:40:55.656Z,70
2017-05-18T07:41:21.140Z,70
2017-05-18T07:41:46.623Z,70
2017-05-18T07:42:12.102Z,75
2017-05-18T07:42:37.565Z,75
2017-05-18T07:43:03.051Z,70
2017-05-18T07:43:28.540Z,65
2017-05-18T07:43:54.023Z,60
2017-05-18T07:44:19.502Z,60
2017-05-18T07:44:44.994Z,60
2017-05-18T07:45:10.463Z,65
2017-05-18T07:45:35.940Z,65
2017-05-18T07:46:01.405Z,65
2017-05-18T07:46:26.892Z,65
2017-05-18T07:46:52.367Z,65
2017-05-18T07:47:17.837Z,60
2017-05-18T07:47:43.315Z,60
2017-05-18T07:48:08.811Z,60
2017-05-18T07:48:34.293Z,60
2017-05-18T07:48:59.781Z,60
2017-05-18T07:49:25.259Z,65
2017-05-18T07:49:50.740Z,65
2017-05-18T07:50:16.203Z,65
2017-05-18T07:50:41.652Z,65
2017-05-18T07:51:07.120Z,70
2017-05-18T07:51:32.592Z,65
2017-05-18T07:51:58.070Z,65
2017-05-18T07:52:23.560Z,60
2017-05-18T07:52:49.067Z,65
2017-05-18T07:53:14.516Z,65
2017-05-18T07:53:39.979Z,70
2017-05-18T07:54:05.486Z,70
2017-05-18T07:54:30.970Z,75
2017-05-18T07:54:56.447Z,80
2017-05-18T07:55:21.959Z,85
2017-05-18T07:55:47.463Z,90
2017-05-18T07:56:12.921Z,100
2017-05-18T07:56:38.390Z,110
2017-05-18T07:57:03.843Z,125
2017-05-18T07:57:29.336Z,145
2017-05-18T07:57:54.797Z,155
2017-05-18T07:58:20.279Z,175
2017-05-18T07:58:45.722Z,185
2017-05-18T07:59:11.240Z,210
2017-05-18T07:59:36.709Z,230
2017-05-18T08:00:02.173Z,255
2017-05-18T08:00:27.652Z,270
2017-05-18T08:00:53.127Z,285
2017-05-18T08:01:18.625Z,300
2017-05-18T08:01:44.096Z,310
2017-05-18T08:02:09.575Z,325
2017-05-18T08:02:35.086Z,330
2017-05-18T08:03:00.518Z,325
2017-05-18T08:03:26.002Z,325
2017-05-18T08:03:51.485Z,325
2017-05-18T08:04:16.951Z,325
2017-05-18T08:04:42.414Z,325
2017-05-18T08:05:07.889Z,320
2017-05-18T08:05:33.363Z,315
2017-05-18T08:05:58.850Z,315
2017-05-18T08:06:24.307Z,315
2017-05-18T08:06:49.792Z,315
2017-05-18T08:07:15.263Z,315
2017-05-18T08:07:40.740Z,315
2017-05-18T08:08:06.220Z,315
2017-05-18T08:08:31.693Z,310
2017-05-18T08:08:57.170Z,305
2017-05-18T08:09:22.654Z,300
2017-05-18T08:09:48.120Z,290
2017-05-18T08:10:13.601Z,270
2017-05-18T08:10:39.147Z,255
2017-05-18T08:11:04.699Z,260
2017-05-18T08:11:30.158Z,250
2017-05-18T08:11:55.638Z,250
2017-05-18T08:12:21.098Z,250
2017-05-18T08:12:46.584Z,245
2017-05-18T08:13:12.048Z,245
2017-05-18T08:13:37.514Z,245
2017-05-18T08:14:03.023Z,245
2017-05-18T08:14:28.523Z,245
2017-05-18T08:14:54.002Z,250
2017-05-18T08:15:19.464Z,250
2017-05-18T08:15:44.931Z,245
2017-05-18T08:16:10.420Z,240
2017-05-18T08:16:35.862Z,230
2017-05-18T08:17:01.332Z,220
2017-05-18T08:17:26.822Z,210
2017-05-18T08:17:52.290Z,200
2017-05-18T08:18:17.764Z,185
2017-05-18T08:18:43.251Z,165
2017-05-18T08:19:08.730Z,155
2017-05-18T08:19:34.202Z,150
2017-05-18T08:19:59.697Z,150
2017-05-18T08:20:25.150Z,150
2017-05-18T08:20:50.624Z,150
2017-05-18T08:21:16.127Z,155
2017-05-18T08:21:41.622Z,155
2017-05-18T08:22:07.086Z,155
2017-05-18T08:22:32.576Z,155
2017-05-18T08:22:58.046Z,160
2017-05-18T08:23:23.524Z,160
2017-05-18T08:23:49.007Z,155
2017-05-18T08:24:14.483Z,145
2017-05-18T08:24:39.964Z,140
2017-05-18T08:25:05.421Z,140
2017-05-18T08:25:30.897Z,140
2017-05-18T08:25:56.344Z,145
2017-05-18T08:26:21.838Z,155
2017-05-18T08:26:47.319Z,165
2017-05-18T08:27:12.784Z,175
2017-05-18T08:27:38.254Z,195
2017-05-18T08:28:03.734Z,205
2017-05-18T08:28:29.169Z,215
2017-05-18T08:28:54.678Z,210
2017-05-18T08:29:20.147Z,205
2017-05-18T08:29:45.630Z,195
2017-05-18T08:30:11.122Z,180
2017-05-18T08:30:36.616Z,175
2017-05-18T08:31:02.096Z,170
2017-05-18T08:31:27.580Z,175
2017-05-18T08:31:53.039Z,175
2017-05-18T08:32:18.523Z,165
2017-05-18T08:32:43.982Z,155
2017-05-18T08:33:09.463Z,150
2017-05-18T08:33:34.952Z,165
2017-05-18T08:34:00.405Z,175
2017-05-18T08:34:25.893Z,180
2017-05-18T08:34:51.355Z,180
2017-05-18T08:35:16.842Z,185
2017-05-18T08:35:42.299Z,195
2017-05-18T08:36:07.781Z,215
2017-05-18T08:36:33.224Z,220
2017-05-18T08:36:58.688Z,205
2017-05-18T08:37:24.153Z,205
2017-05-18T08:37:49.615Z,215
2017-05-18T08:38:15.084Z,220
2017-05-18T08:38:40.601Z,230
2017-05-18T08:39:06.086Z,230
2017-05-18T08:39:31.531Z,240
2017-05-18T08:39:56.992Z,265
2017-05-18T08:40:22.459Z,285
2017-05-18T08:40:47.940Z,290
2017-05-18T08:41:13.457Z,300
2017-05-18T08:41:38.869Z,315
2017-05-18T08:42:04.350Z,325
2017-05-18T08:42:29.802Z,350
2017-05-18T08:42:55.277Z,380
2017-05-18T08:43:20.763Z,405
2017-05-18T08:43:46.228Z,420
2017-05-18T08:44:11.699Z,440
2017-05-18T08:44:37.177Z,455
2017-05-18T08:45:02.618Z,470
2017-05-18T08:45:28.095Z,470
2017-05-18T08:45:53.603Z,450
2017-05-18T08:46:19.070Z,445
2017-05-18T08:46:44.559Z,440
2017-05-18T08:47:10.040Z,405
2017-05-18T08:47:35.512Z,375
2017-05-18T08:48:00.985Z,350
2017-05-18T08:48:26.463Z,330
2017-05-18T08:48:51.947Z,325
2017-05-18T08:49:17.391Z,325
2017-05-18T08:49:42.854Z,325
2017-05-18T08:50:08.329Z,330
2017-05-18T08:50:33.823Z,335
2017-05-18T08:50:59.286Z,325
2017-05-18T08:51:24.756Z,320
2017-05-18T08:51:50.244Z,310
2017-05-18T08:52:15.728Z,315
2017-05-18T08:52:41.219Z,325
2017-05-18T08:53:06.665Z,340
2017-05-18T08:53:32.142Z,335
2017-05-18T08:53:57.629Z,295
2017-05-18T08:54:23.111Z,275
2017-05-18T08:54:48.547Z,285
2017-05-18T08:55:14.028Z,295
2017-05-18T08:55:39.496Z,310
2017-05-18T08:56:04.963Z,305
2017-05-18T08:56:30.425Z,300
2017-05-18T08:56:55.909Z,310
2017-05-18T08:57:21.396Z,320
2017-05-18T08:57:46.890Z,320
2017-05-18T08:58:12.325Z,305
2017-05-18T08:58:37.796Z,285
2017-05-18T08:59:03.292Z,255
2017-05-18T08:59:28.761Z,230
2017-05-18T08:59:54.230Z,215
2017-05-18T09:00:19.702Z,205
2017-05-18T09:00:45.169Z,205
2017-05-18T09:01:10.633Z,210
2017-05-18T09:01:36.114Z,210
2017-05-18T09:02:01.587Z,210
2017-05-18T09:02:27.071Z,210
2017-05-18T09:02:52.566Z,215
2017-05-18T09:03:18.041Z,220
2017-05-18T09:03:43.508Z,225
2017-05-18T09:04:09.001Z,230
2017-05-18T09:04:34.456Z,230
2017-05-18T09:04:59.936Z,235
2017-05-18T09:05:25.399Z,250
2017-05-18T09:05:50.926Z,270
2017-05-18T09:06:16.416Z,275
2017-05-18T09:06:41.925Z,270
2017-05-18T09:07:07.342Z,260
2017-05-18T09:07:32.821Z,260
2017-05-18T09:07:58.297Z,270
2017-05-18T09:08:23.771Z,265
2017-05-18T09:08:49.253Z,265
2017-05-18T09:09:14.744Z,270
2017-05-18T09:09:40.236Z,265
2017-05-18T09:10:05.665Z,240
2017-05-18T09:10:31.143Z,220
2017-05-18T09:10:56.641Z,225
2017-05-18T09:11:22.103Z,255
2017-05-18T09:11:47.591Z,290
2017-05-18T09:12:13.067Z,305
2017-05-18T09:12:38.545Z,315
2017-05-18T09:13:04.013Z,335
2017-05-18T09:13:29.475Z,330
2017-05-18T09:13:54.953Z,325
2017-05-18T09:14:20.427Z,310
2017-05-18T09:14:45.922Z,300
2017-05-18T09:15:11.395Z,300
2017-05-18T09:15:36.879Z,325
2017-05-18T09:16:02.357Z,360
2017-05-18T09:16:27.839Z,370
2017-05-18T09:16:53.299Z,370
2017-05-18T09:17:18.769Z,365
2017-05-18T09:17:44.225Z,360
2017-05-18T09:18:09.707Z,355
2017-05-18T09:18:35.190Z,355
2017-05-18T09:19:00.677Z,355
2017-05-18T09:19:26.154Z,355
2017-05-18T09:19:51.628Z,360
2017-05-18T09:20:17.121Z,360
2017-05-18T09:20:42.567Z,365
2017-05-18T09:21:08.035Z,365
2017-05-18T09:21:33.521Z,370
2017-05-18T09:21:59.018Z,365
2017-05-18T09:22:24.540Z,365
2017-05-18T09:22:49.974Z,360
2017-05-18T09:23:15.459Z,360
2017-05-18T09:23:40.947Z,350
2017-05-18T09:24:06.435Z,350
2017-05-18T09:24:31.877Z,345
2017-05-18T09:24:57.354Z,355
2017-05-18T09:25:22.821Z,355
2017-05-18T09:25:48.320Z,345
2017-05-18T09:26:13.818Z,335
2017-05-18T09:26:39.288Z,355
2017-05-18T09:27:04.779Z,375
2017-05-18T09:27:30.268Z,380
2017-05-18T09:27:55.732Z,380
2017-05-18T09:28:21.192Z,380
2017-05-18T09:28:46.749Z,385
2017-05-18T09:29:12.178Z,380
2017-05-18T09:29:37.651Z,375
2017-05-18T09:30:03.144Z,385
2017-05-18T09:30:28.613Z,380
2017-05-18T09:30:54.080Z,370
2017-05-18T09:31:19.586Z,360
2017-05-18T09:31:45.053Z,365
2017-05-18T09:32:10.550Z,370
2017-05-18T09:32:36.007Z,360
2017-05-18T09:33:01.478Z,385
2017-05-18T09:33:26.949Z,415
2017-05-18T09:33:52.405Z,425
2017-05-18T09:34:17.859Z,385
2017-05-18T09:34:43.351Z,335
2017-05-18T09:35:08.824Z,320
2017-05-18T09:35:34.341Z,315
2017-05-18T09:35:59.823Z,315
2017-05-18T09:36:25.307Z,315
2017-05-18T09:36:50.781Z,315
2017-05-18T09:37:16.255Z,315
2017-05-18T09:37:41.723Z,310
2017-05-18T09:38:07.189Z,305
2017-05-18T09:38:32.662Z,305
2017-05-18T09:38:58.138Z,310
2017-05-18T09:39:23.627Z,325
2017-05-18T09:39:49.137Z,340
2017-05-18T09:40:14.588Z,345
2017-05-18T09:40:40.045Z,335
2017-05-18T09:41:05.533Z,325
2017-05-18T09:41:30.996Z,320
2017-05-18T09:41:56.506Z,325
2017-05-18T09:42:21.967Z,340
2017-05-18T09:42:47.434Z,355
2017-05-18T09:43:12.903Z,355
2017-05-18T09:43:38.368Z,360
2017-05-18T09:44:03.848Z,355
2017-05-18T09:44:29.310Z,350
2017-05-18T09:44:54.805Z,340
2017-05-18T09:45:20.289Z,320
2017-05-18T09:45:45.774Z,310
2017-05-18T09:46:11.257Z,315
2017-05-18T09:46:36.715Z,345
2017-05-18T09:47:02.190Z,350
2017-05-18T09:47:27.671Z,340
2017-05-18T09:47:53.155Z,330
2017-05-18T09:48:18.616Z,305
2017-05-18T09:48:44.082Z,280
2017-05-18T09:49:09.573Z,275
2017-05-18T09:49:35.053Z,290
2017-05-18T09:50:00.543Z,325
2017-05-18T09:50:25.970Z,355
2017-05-18T09:50:51.455Z,390
2017-05-18T09:51:16.941Z,420
2017-05-18T09:51:42.407Z,400
2017-05-18T09:52:07.893Z,375
2017-05-18T09:52:33.378Z,380
2017-05-18T09:52:58.862Z,370
2017-05-18T09:53:24.324Z,345
2017-05-18T09:53:49.796Z,320
2017-05-18T09:54:15.251Z,270
2017-05-18T09:54:40.711Z,235
2017-05-18T09:55:06.172Z,205
2017-05-18T09:55:31.643Z,190
2017-05-18T09:55:57.121Z,225
2017-05-18T09:56:22.579Z,285
2017-05-18T09:56:48.066Z,330
2017-05-18T09:57:13.547Z,345
2017-05-18T09:57:39.041Z,355
2017-05-18T09:58:04.499Z,370
2017-05-18T09:58:29.959Z,365
2017-05-18T09:58:55.462Z,355
2017-05-18T09:59:20.909Z,345
2017-05-18T09:59:46.368Z,335
2017-05-18T10:00:11.860Z,305
2017-05-18T10:00:37.308Z,280
2017-05-18T10:01:02.769Z,275
2017-05-18T10:01:28.239Z,275
2017-05-18T10:01:53.700Z,270
2017-05-18T10:02:19.185Z,260
2017-05-18T10:02:44.665Z,245
2017-05-18T10:03:10.143Z,230
2017-05-18T10:03:35.605Z,220
2017-05-18T10:04:01.084Z,210
2017-05-18T10:04:26.554Z,205
2017-05-18T10:04:51.990Z,205
2017-05-18T10:05:17.475Z,200
2017-05-18T10:05:42.951Z,200
2017-05-18T10:06:08.391Z,220
2017-05-18T10:06:33.898Z,235
2017-05-18T10:06:59.384Z,250
2017-05-18T10:07:24.866Z,255
2017-05-18T10:07:50.341Z,255
2017-05-18T10:08:15.816Z,255
2017-05-18T10:08:41.301Z,260
2017-05-18T10:09:06.782Z,260
2017-05-18T10:09:32.228Z,255
2017-05-18T10:09:57.702Z,250
2017-05-18T10:10:23.174Z,240
2017-05-18T10:10:48.650Z,230
2017-05-18T10:11:14.126Z,230
2017-05-18T10:11:39.610Z,235
2017-05-18T10:12:05.085Z,240
2017-05-18T10:12:30.550Z,260
2017-05-18T10:12:56.020Z,280
2017-05-18T10:13:21.503Z,280
2017-05-18T10:13:46.963Z,265
2017-05-18T10:14:12.452Z,245
2017-05-18T10:14:37.932Z,235
2017-05-18T10:15:03.392Z,225
2017-05-18T10:15:28.871Z,215
2017-05-18T10:15:54.345Z,220
2017-05-18T10:16:19.810Z,230
2017-05-18T10:16:45.272Z,255
2017-05-18T10:17:10.740Z,275
2017-05-18T10:17:36.236Z,275
2017-05-18T10:18:01.695Z,265
2017-05-18T10:18:27.165Z,255
2017-05-18T10:18:52.655Z,250
2017-05-18T10:19:18.144Z,255
2017-05-18T10:19:43.618Z,255
2017-05-18T10:20:09.092Z,255
2017-05-18T10:20:34.574Z,240
2017-05-18T10:21:00.057Z,230
2017-05-18T10:21:25.537Z,230
2017-05-18T10:21:50.940Z,235
2017-05-18T10:22:16.410Z,250
2017-05-18T10:22:41.879Z,255
2017-05-18T10:23:07.342Z,255
2017-05-18T10:23:32.886Z,250
2017-05-18T10:23:58.345Z,260
2017-05-18T10:24:23.806Z,265
2017-05-18T10:24:49.295Z,270
2017-05-18T10:25:14.754Z,290
2017-05-18T10:25:40.226Z,305
2017-05-18T10:26:05.716Z,300
2017-05-18T10:26:31.186Z,285
2017-05-18T10:26:56.699Z,285
2017-05-18T10:27:22.182Z,270
2017-05-18T10:27:47.660Z,260
2017-05-18T10:28:13.108Z,250
2017-05-18T10:28:38.588Z,235
2017-05-18T10:29:04.057Z,215
2017-05-18T10:29:29.522Z,200
2017-05-18T10:29:54.968Z,190
2017-05-18T10:30:20.440Z,185
2017-05-18T10:30:45.896Z,175
2017-05-18T10:31:11.372Z,165
2017-05-18T10:31:36.857Z,150
2017-05-18T10:32:02.341Z,135
2017-05-18T10:32:27.775Z,130
2017-05-18T10:32:53.248Z,125
2017-05-18T10:33:18.747Z,125
2017-05-18T10:33:44.221Z,130
2017-05-18T10:34:09.701Z,145
2017-05-18T10:34:35.178Z,165
2017-05-18T10:35:00.648Z,195
2017-05-18T10:35:26.120Z,225
2017-05-18T10:35:51.665Z,250